createdAt,value
2019-02-17T00:00:49.784Z,2.40
2019-02-17T00:05:53.918Z,2.40
2019-02-17T00:10:58.960Z,2.50
2019-02-17T00:16:04.383Z,2.30
2019-02-17T00:21:09.611Z,2.20
2019-02-17T00:26:15.294Z,2.20
2019-02-17T00:31:18.952Z,2.00
2019-02-17T00:36:22.912Z,2.30
2019-02-17T00:41:26.354Z,2.30
2019-02-17T00:46:30.156Z,2.00
2019-02-17T00:51:34.576Z,1.90
2019-02-17T00:56:38.440Z,2.00
2019-02-17T01:01:43.283Z,1.90
2019-02-17T01:06:46.794Z,1.80
2019-02-17T01:11:50.358Z,1.80
2019-02-17T01:16:53.870Z,1.70
2019-02-17T01:21:58.414Z,1.70
2019-02-17T01:27:01.881Z,1.70
2019-02-17T01:32:06.905Z,1.70
2019-02-17T01:37:12.200Z,1.70
2019-02-17T01:42:16.193Z,1.60
2019-02-17T01:47:19.986Z,1.60
2019-02-17T01:52:24.245Z,1.60
2019-02-17T01:57:29.201Z,1.70
2019-02-17T02:02:33.353Z,1.80
2019-02-17T02:07:37.380Z,1.60
2019-02-17T02:12:41.583Z,1.50
2019-02-17T02:17:45.823Z,1.50
2019-02-17T02:22:49.207Z,1.40
2019-02-17T02:27:55.635Z,1.40
2019-02-17T02:33:00.386Z,1.70
2019-02-17T02:38:05.345Z,1.30
2019-02-17T02:43:10.470Z,1.30
2019-02-17T02:48:13.816Z,1.30
2019-02-17T02:53:18.824Z,1.20
2019-02-17T02:58:23.516Z,1.30
2019-02-17T03:03:28.334Z,1.20
2019-02-17T03:08:33.058Z,1.10
2019-02-17T03:13:37.749Z,1.10
2019-02-17T03:18:42.854Z,1.00
2019-02-17T03:23:48.136Z,1.00
2019-02-17T03:28:54.641Z,0.90
2019-02-17T03:33:58.028Z,0.90
2019-02-17T03:39:04.938Z,0.90
2019-02-17T03:44:09.973Z,0.80
2019-02-17T03:49:14.600Z,0.80
2019-02-17T03:54:19.070Z,0.80
2019-02-17T03:59:23.685Z,0.70
2019-02-17T04:04:28.995Z,0.70
2019-02-17T04:09:33.274Z,0.60
2019-02-17T04:14:38.338Z,0.50
2019-02-17T04:19:43.341Z,0.60
2019-02-17T04:24:48.333Z,0.50
2019-02-17T04:29:54.751Z,0.40
2019-02-17T04:34:59.500Z,0.40
2019-02-17T04:40:04.745Z,0.60
2019-02-17T04:45:09.986Z,0.50
2019-02-17T04:50:14.833Z,0.40
2019-02-17T04:55:18.291Z,0.40
2019-02-17T05:00:22.927Z,0.30
2019-02-17T05:05:27.814Z,0.30
2019-02-17T05:10:32.853Z,0.30
2019-02-17T05:15:41.120Z,0.30
2019-02-17T05:20:46.060Z,0.20
2019-02-17T05:25:49.472Z,0.30
2019-02-17T05:30:54.425Z,0.20
2019-02-17T05:35:59.368Z,0.20
2019-02-17T05:41:03.880Z,0.20
2019-02-17T05:46:08.697Z,0.10
2019-02-17T05:51:13.885Z,0.10
2019-02-17T05:56:18.219Z,0.10
2019-02-17T06:01:22.686Z,0.10
2019-02-17T06:06:26.058Z,0.10
2019-02-17T06:11:30.161Z,0.00
2019-02-17T06:16:34.120Z,0.00
2019-02-17T06:21:37.583Z,0.00
2019-02-17T06:26:40.882Z,-0.10
2019-02-17T06:31:44.305Z,-0.10
2019-02-17T06:36:47.602Z,0.00
2019-02-17T06:41:51.180Z,0.00
2019-02-17T06:46:59.122Z,0.00
2019-02-17T06:52:02.943Z,0.00
2019-02-17T06:57:21.892Z,0.00
2019-02-17T07:02:26.273Z,0.00
2019-02-17T07:07:30.424Z,0.00
2019-02-17T07:12:34.644Z,0.10
2019-02-17T07:17:38.883Z,0.10
2019-02-17T07:22:43.874Z,0.20
2019-02-17T07:27:47.485Z,0.30
2019-02-17T07:32:53.015Z,0.40
2019-02-17T07:37:58.586Z,0.50
2019-02-17T07:43:04.294Z,0.60
2019-02-17T07:48:10.023Z,0.70
2019-02-17T07:53:16.486Z,0.80
2019-02-17T07:58:23.842Z,0.90
2019-02-17T08:03:29.280Z,1.00
2019-02-17T08:08:34.882Z,1.20
2019-02-17T08:13:39.843Z,1.40
2019-02-17T08:18:44.664Z,1.50
2019-02-17T08:23:49.730Z,1.70
2019-02-17T08:28:56.132Z,2.00
2019-02-17T08:40:10.407Z,2.40
2019-02-17T08:45:19.801Z,2.80
2019-02-17T08:50:24.929Z,3.00
2019-02-17T08:55:40.123Z,3.20
2019-02-17T09:00:45.483Z,3.50
2019-02-17T09:05:49.344Z,3.80
2019-02-17T09:10:54.916Z,4.10
2019-02-17T09:16:00.871Z,4.20
2019-02-17T09:21:06.078Z,4.50
2019-02-17T09:26:09.841Z,4.90
2019-02-17T09:31:13.294Z,4.80
2019-02-17T09:36:16.813Z,4.90
2019-02-17T09:41:20.501Z,5.10
2019-02-17T09:46:24.021Z,5.20
2019-02-17T09:51:29.575Z,5.40
2019-02-17T09:56:33.167Z,5.60
2019-02-17T10:01:37.403Z,5.80
2019-02-17T10:06:41.529Z,6.00
2019-02-17T10:11:45.883Z,6.00
2019-02-17T10:16:49.637Z,6.10
2019-02-17T10:21:53.881Z,6.30
2019-02-17T10:26:58.258Z,6.60
2019-02-17T10:32:01.813Z,6.80
2019-02-17T10:37:07.023Z,7.00
2019-02-17T10:42:11.879Z,7.10
2019-02-17T10:47:16.917Z,7.10
2019-02-17T10:52:21.639Z,7.50
2019-02-17T10:57:25.909Z,7.80
2019-02-17T11:02:29.778Z,8.00
2019-02-17T11:07:34.629Z,8.20
2019-02-17T11:12:38.807Z,8.40
2019-02-17T11:17:43.938Z,8.90
2019-02-17T11:22:47.762Z,9.10
2019-02-17T11:27:53.380Z,9.50
2019-02-17T11:32:59.276Z,9.80
2019-02-17T11:38:05.815Z,10.00
2019-02-17T11:43:11.193Z,10.20
2019-02-17T11:48:15.635Z,10.40
2019-02-17T11:53:20.258Z,10.60
2019-02-17T11:58:25.776Z,10.60
2019-02-17T12:03:30.885Z,10.70
2019-02-17T12:08:35.651Z,10.90
2019-02-17T12:13:40.389Z,11.00
2019-02-17T12:18:45.237Z,11.10
2019-02-17T12:24:08.744Z,11.20
2019-02-17T12:29:38.893Z,11.30
2019-02-17T12:34:44.622Z,11.50
2019-02-17T12:39:49.917Z,11.70
2019-02-17T12:44:57.167Z,11.80
2019-02-17T12:50:04.910Z,11.90
2019-02-17T12:55:10.815Z,12.10
2019-02-17T13:00:17.399Z,12.20
2019-02-17T13:05:22.803Z,12.40
2019-02-17T13:10:28.349Z,12.50
2019-02-17T13:15:33.503Z,12.70
2019-02-17T13:20:38.566Z,12.80
2019-02-17T13:25:42.077Z,12.90
2019-02-17T13:30:47.649Z,13.10
2019-02-17T13:35:52.373Z,13.20
2019-02-17T13:40:57.809Z,13.30
2019-02-17T13:46:03.595Z,13.30
2019-02-17T13:51:11.741Z,13.40
2019-02-17T13:56:18.647Z,13.50
2019-02-17T14:01:22.779Z,13.60
2019-02-17T14:06:28.569Z,13.70
2019-02-17T14:11:31.993Z,13.90
2019-02-17T14:16:35.498Z,14.00
2019-02-17T14:21:39.053Z,14.10
2019-02-17T14:26:43.773Z,14.30
2019-02-17T14:31:47.120Z,14.50
2019-02-17T14:36:51.168Z,14.70
2019-02-17T14:47:35.821Z,15.20
2019-02-17T14:52:40.192Z,15.60
2019-02-17T14:57:46.037Z,15.60
2019-02-17T15:02:51.863Z,15.80
2019-02-17T15:07:55.575Z,16.10
2019-02-17T15:13:01.002Z,15.90
2019-02-17T15:18:06.613Z,16.00
2019-02-17T15:23:12.005Z,16.10
2019-02-17T15:28:17.049Z,16.00
2019-02-17T15:33:22.351Z,15.90
2019-02-17T15:38:27.875Z,16.00
2019-02-17T15:43:33.865Z,16.00
2019-02-17T15:48:40.880Z,16.00
2019-02-17T15:53:46.773Z,15.90
2019-02-17T15:58:52.401Z,16.00
2019-02-17T16:03:57.708Z,16.00
2019-02-17T16:09:04.326Z,16.00
2019-02-17T16:14:10.571Z,16.30
2019-02-17T16:19:16.546Z,16.40
2019-02-17T16:24:21.875Z,16.30
2019-02-17T16:29:25.490Z,16.10
2019-02-17T16:34:38.195Z,15.90
2019-02-17T16:39:37.108Z,15.50
2019-02-17T16:57:15.564Z,15.00
2019-02-17T17:02:20.099Z,13.90
2019-02-17T17:07:25.661Z,13.20
2019-02-17T17:12:30.433Z,13.00
2019-02-17T17:17:36.292Z,12.70
2019-02-17T17:22:41.603Z,12.30
2019-02-17T17:27:46.837Z,12.10
2019-02-17T17:32:52.874Z,11.80
2019-02-17T17:37:57.943Z,11.50
2019-02-17T17:43:04.311Z,11.10
2019-02-17T17:48:10.187Z,11.10
2019-02-17T17:53:14.449Z,10.90
2019-02-17T17:58:19.979Z,10.40
2019-02-17T18:03:25.176Z,9.90
2019-02-17T18:08:30.202Z,9.60
2019-02-17T18:13:35.883Z,9.40
2019-02-17T18:18:40.657Z,9.00
2019-02-17T18:23:46.730Z,8.60
2019-02-17T18:28:51.934Z,8.40
2019-02-17T18:33:57.113Z,8.30
2019-02-17T18:39:02.890Z,8.10
2019-02-17T18:44:11.144Z,7.90
2019-02-17T18:49:16.327Z,7.80
2019-02-17T18:54:21.541Z,7.60
2019-02-17T18:59:26.720Z,7.60
2019-02-17T19:04:32.094Z,7.40
2019-02-17T19:09:37.165Z,7.10
2019-02-17T19:14:42.582Z,6.90
2019-02-17T19:19:47.593Z,6.70
2019-02-17T19:24:52.605Z,6.70
2019-02-17T19:29:57.853Z,6.60
2019-02-17T19:35:03.313Z,6.50
2019-02-17T19:40:10.511Z,6.40
2019-02-17T19:45:17.029Z,6.30
2019-02-17T19:50:22.267Z,6.10
2019-02-17T19:55:27.290Z,6.10
2019-02-17T20:00:32.661Z,5.90
2019-02-17T20:05:39.873Z,5.80
2019-02-17T20:10:46.173Z,5.80
2019-02-17T20:15:51.386Z,5.70
2019-02-17T20:20:56.154Z,5.60
2019-02-17T20:26:00.287Z,5.50
2019-02-17T20:31:06.780Z,5.50
2019-02-17T20:36:10.283Z,5.40
2019-02-17T20:41:14.953Z,5.20
2019-02-17T20:46:21.019Z,5.10
2019-02-17T20:51:25.303Z,5.00
2019-02-17T20:56:29.825Z,5.10
2019-02-17T21:01:34.327Z,5.00
2019-02-17T21:06:38.954Z,4.90
2019-02-17T21:11:43.939Z,4.90
2019-02-17T21:16:49.000Z,4.60
2019-02-17T21:21:54.257Z,4.50
2019-02-17T21:27:00.526Z,4.40
2019-02-17T21:32:05.298Z,4.40
2019-02-17T21:37:09.871Z,4.20
2019-02-17T21:42:14.011Z,4.30
2019-02-17T21:47:18.313Z,4.10
2019-02-17T21:52:23.529Z,4.00
2019-02-17T21:57:29.051Z,3.90
2019-02-17T22:02:34.837Z,3.80
2019-02-17T22:07:40.251Z,4.00
2019-02-17T22:12:45.554Z,3.80
2019-02-17T22:17:50.740Z,3.60
2019-02-17T22:22:56.109Z,3.70
2019-02-17T22:28:01.255Z,3.60
2019-02-17T22:33:06.529Z,3.60
2019-02-17T22:38:11.619Z,3.60
2019-02-17T22:43:17.925Z,3.30
2019-02-17T22:48:24.743Z,3.20
2019-02-17T22:53:30.003Z,3.10
2019-02-17T22:58:35.955Z,3.10
2019-02-17T23:03:41.593Z,3.00
2019-02-17T23:08:46.747Z,2.90
2019-02-17T23:13:52.651Z,2.90
2019-02-17T23:18:58.262Z,3.00
2019-02-17T23:24:03.378Z,2.80
2019-02-17T23:29:08.591Z,3.00
2019-02-17T23:34:13.913Z,2.70
2019-02-17T23:39:19.096Z,2.70
2019-02-17T23:44:24.253Z,2.60
2019-02-17T23:49:30.703Z,2.70
2019-02-17T23:54:34.934Z,2.60
2019-02-17T23:59:39.963Z,2.60
